^^
Station Historical Data
Daily Summary for November 17, 2017 Units:  Both    English   Metric
« Previous Day
Next Day »
Daily Weekly Monthly Yearly Custom
  High: Low: Average:
Temperature: TemperatureF °F /  -17.8 °C 50.7 °F /  10.4 °C 66.8 °F /  19.3 °C
Dew Point: DewpointF °F /  -17.8 °C 11.8 °F /  -11.2 °C 20.9 °F /  -6.2 °C
Humidity: Humidity% 7% 19%
Wind Speed: WindSpeedMPHmph /  0km/h - 2.3mph /  3.7km/h
Wind Gust: WindSpeedGustMPHmph /  0km/h - -
Wind- - SSE
Pressure: PressureIn in /  0 hPa 29.93 in /  1013.4 hPa -
Precipitation: 0.00 in /  0 mm    
Historical Graphs
 
 
Tabular Data for November 17, 2017
Time Temperature Dew Point Pressure Wind Wind Speed Wind Gust Humidity Rainfall Rate (Hourly) solar Conditions
TemperatureF °F /  -17.8 °C DewpointF °F /  -17.8 °C PressureInin /  0hPa Calm     Humidity% HourlyPrecipInin /  0mm SolarRadiationWatts/m^2 W/m2 Conditions
00:00 58.5 °F /  14.7 °C 20.8 °F /  -6.2 °C 30.38in /  1028.7hPa NE 0.9mph /  1.4km/h 2.0mph /  3.2km/h 23% 0.00in /  0mm 0.0 W/m2
00:05 58.3 °F /  14.6 °C 20.7 °F /  -6.3 °C 30.37in /  1028.3hPa Calm   2.0mph /  3.2km/h 23% 0.00in /  0mm 0.0 W/m2
00:11 57.7 °F /  14.3 °C 21.2 °F /  -6 °C 30.37in /  1028.3hPa ESE 2.0mph /  3.2km/h 2.0mph /  3.2km/h 24% 0.00in /  0mm 0.0 W/m2
00:16 57.6 °F /  14.2 °C 21.0 °F /  -6.1 °C 30.37in /  1028.3hPa Calm   2.0mph /  3.2km/h 24% 0.00in /  0mm 0.0 W/m2
00:21 57.0 °F /  13.9 °C 20.5 °F /  -6.4 °C 30.37in /  1028.3hPa Calm   5.0mph /  8km/h 24% 0.00in /  0mm 0.0 W/m2
00:26 56.8 °F /  13.8 °C 20.5 °F /  -6.4 °C 30.38in /  1028.7hPa SE 2.9mph /  4.7km/h 3.0mph /  4.8km/h 24% 0.00in /  0mm 0.0 W/m2
00:31 56.7 °F /  13.7 °C 21.2 °F /  -6 °C 30.37in /  1028.3hPa Calm   2.0mph /  3.2km/h 25% 0.00in /  0mm 0.0 W/m2
00:36 56.5 °F /  13.6 °C 21.0 °F /  -6.1 °C 30.37in /  1028.3hPa Calm   1.0mph /  1.6km/h 25% 0.00in /  0mm 0.0 W/m2
00:41 56.3 °F /  13.5 °C 20.8 °F /  -6.2 °C 30.37in /  1028.3hPa Calm   1.0mph /  1.6km/h 25% 0.00in /  0mm 0.0 W/m2
00:47 56.1 °F /  13.4 °C 20.8 °F /  -6.2 °C 30.38in /  1028.7hPa Calm   2.0mph /  3.2km/h 25% 0.00in /  0mm 0.0 W/m2
00:52 55.9 °F /  13.3 °C 20.7 °F /  -6.3 °C 30.37in /  1028.3hPa Calm     25% 0.00in /  0mm 0.0 W/m2
00:57 55.9 °F /  13.3 °C 21.6 °F /  -5.8 °C 30.37in /  1028.3hPa Calm   3.0mph /  4.8km/h 26% 0.00in /  0mm 0.0 W/m2
01:02 55.8 °F /  13.2 °C 21.4 °F /  -5.9 °C 30.37in /  1028.3hPa Calm   1.0mph /  1.6km/h 26% 0.00in /  0mm 0.0 W/m2
01:07 55.6 °F /  13.1 °C 21.2 °F /  -6 °C 30.37in /  1028.3hPa Calm   3.0mph /  4.8km/h 26% 0.00in /  0mm 0.0 W/m2
01:12 55.6 °F /  13.1 °C 21.2 °F /  -6 °C 30.37in /  1028.3hPa Calm   1.0mph /  1.6km/h 26% 0.00in /  0mm 0.0 W/m2
01:17 55.6 °F /  13.1 °C 21.2 °F /  -6 °C 30.37in /  1028.3hPa ESE 2.0mph /  3.2km/h 4.0mph /  6.4km/h 26% 0.00in /  0mm 0.0 W/m2
01:22 55.6 °F /  13.1 °C 22.1 °F /  -5.5 °C 30.37in /  1028.3hPa ESE 2.0mph /  3.2km/h 6.0mph /  9.7km/h 27% 0.00in /  0mm 0.0 W/m2
01:28 55.6 °F /  13.1 °C 22.1 °F /  -5.5 °C 30.37in /  1028.3hPa NE 2.9mph /  4.7km/h 4.0mph /  6.4km/h 27% 0.00in /  0mm 0.0 W/m2
01:33 55.6 °F /  13.1 °C 21.2 °F /  -6 °C 30.37in /  1028.3hPa SE 0.9mph /  1.4km/h 5.0mph /  8km/h 26% 0.00in /  0mm 0.0 W/m2
01:38 55.6 °F /  13.1 °C 22.1 °F /  -5.5 °C 30.36in /  1028hPa ENE 2.0mph /  3.2km/h 5.0mph /  8km/h 27% 0.00in /  0mm 0.0 W/m2
01:43 55.8 °F /  13.2 °C 22.3 °F /  -5.4 °C 30.36in /  1028hPa Calm   6.0mph /  9.7km/h 27% 0.00in /  0mm 0.0 W/m2
01:48 55.8 °F /  13.2 °C 22.3 °F /  -5.4 °C 30.36in /  1028hPa ENE 6.0mph /  9.7km/h 6.0mph /  9.7km/h 27% 0.00in /  0mm 0.0 W/m2
01:53 55.8 °F /  13.2 °C 22.3 °F /  -5.4 °C 30.36in /  1028hPa Calm   4.0mph /  6.4km/h 27% 0.00in /  0mm 0.0 W/m2
01:58 55.9 °F /  13.3 °C 22.5 °F /  -5.3 °C 30.36in /  1028hPa SSE 2.9mph /  4.7km/h 3.0mph /  4.8km/h 27% 0.00in /  0mm 0.0 W/m2
02:03 55.8 °F /  13.2 °C 22.3 °F /  -5.4 °C 30.36in /  1028hPa SE 2.0mph /  3.2km/h 8.0mph /  12.9km/h 27% 0.00in /  0mm 0.0 W/m2
02:09 55.8 °F /  13.2 °C 22.3 °F /  -5.4 °C 30.36in /  1028hPa ESE 4.9mph /  7.9km/h 7.0mph /  11.3km/h 27% 0.00in /  0mm 0.0 W/m2
02:14 55.8 °F /  13.2 °C 22.3 °F /  -5.4 °C 30.36in /  1028hPa East 4.0mph /  6.4km/h 8.0mph /  12.9km/h 27% 0.00in /  0mm 0.0 W/m2
02:19 55.8 °F /  13.2 °C 22.3 °F /  -5.4 °C 30.36in /  1028hPa East 0.9mph /  1.4km/h 8.0mph /  12.9km/h 27% 0.00in /  0mm 0.0 W/m2
02:24 55.6 °F /  13.1 °C 22.1 °F /  -5.5 °C 30.36in /  1028hPa Calm   4.0mph /  6.4km/h 27% 0.00in /  0mm 0.0 W/m2
02:34 55.2 °F /  12.9 °C 22.6 °F /  -5.2 °C 30.36in /  1028hPa East 4.0mph /  6.4km/h 7.0mph /  11.3km/h 28% 0.00in /  0mm 0.0 W/m2
02:39 55.2 °F /  12.9 °C 22.6 °F /  -5.2 °C 30.36in /  1028hPa SE 0.9mph /  1.4km/h 4.0mph /  6.4km/h 28% 0.00in /  0mm 0.0 W/m2
02:44 55.0 °F /  12.8 °C 22.5 °F /  -5.3 °C 30.36in /  1028hPa East 2.9mph /  4.7km/h 8.0mph /  12.9km/h 28% 0.00in /  0mm 0.0 W/m2
02:49 54.9 °F /  12.7 °C 22.3 °F /  -5.4 °C 30.35in /  1027.7hPa South 4.9mph /  7.9km/h 7.0mph /  11.3km/h 28% 0.00in /  0mm 0.0 W/m2
02:54 54.9 °F /  12.7 °C 22.3 °F /  -5.4 °C 30.35in /  1027.7hPa SE 2.0mph /  3.2km/h 6.0mph /  9.7km/h 28% 0.00in /  0mm 0.0 W/m2
02:59 54.7 °F /  12.6 °C 23.0 °F /  -5 °C 30.35in /  1027.7hPa SE 2.0mph /  3.2km/h 8.0mph /  12.9km/h 29% 0.00in /  0mm 0.0 W/m2
03:05 54.7 °F /  12.6 °C 23.0 °F /  -5 °C 30.35in /  1027.7hPa ENE 0.9mph /  1.4km/h 8.0mph /  12.9km/h 29% 0.00in /  0mm 0.0 W/m2
03:10 54.7 °F /  12.6 °C 23.0 °F /  -5 °C 30.34in /  1027.3hPa SE 2.0mph /  3.2km/h 6.0mph /  9.7km/h 29% 0.00in /  0mm 0.0 W/m2
03:15 54.5 °F /  12.5 °C 22.8 °F /  -5.1 °C 30.34in /  1027.3hPa East 2.0mph /  3.2km/h 5.0mph /  8km/h 29% 0.00in /  0mm 0.0 W/m2
03:20 54.3 °F /  12.4 °C 23.5 °F /  -4.7 °C 30.34in /  1027.3hPa NNE 0.9mph /  1.4km/h 6.0mph /  9.7km/h 30% 0.00in /  0mm 0.0 W/m2
03:25 54.1 °F /  12.3 °C 23.4 °F /  -4.8 °C 30.34in /  1027.3hPa ESE 2.0mph /  3.2km/h 4.0mph /  6.4km/h 30% 0.00in /  0mm 0.0 W/m2
03:30 54.0 °F /  12.2 °C 23.2 °F /  -4.9 °C 30.34in /  1027.3hPa Calm   8.0mph /  12.9km/h 30% 0.00in /  0mm 0.0 W/m2
03:35 54.0 °F /  12.2 °C 24.1 °F /  -4.4 °C 30.34in /  1027.3hPa SE 2.0mph /  3.2km/h 5.0mph /  8km/h 31% 0.00in /  0mm 0.0 W/m2
03:40 53.8 °F /  12.1 °C 23.9 °F /  -4.5 °C 30.34in /  1027.3hPa ENE 4.0mph /  6.4km/h 4.0mph /  6.4km/h 31% 0.00in /  0mm 0.0 W/m2
03:46 53.8 °F /  12.1 °C 23.9 °F /  -4.5 °C 30.34in /  1027.3hPa Calm   2.0mph /  3.2km/h 31% 0.00in /  0mm 0.0 W/m2
03:51 53.8 °F /  12.1 °C 23.9 °F /  -4.5 °C 30.34in /  1027.3hPa ESE 2.9mph /  4.7km/h 6.0mph /  9.7km/h 31% 0.00in /  0mm 0.0 W/m2
03:56 53.4 °F /  11.9 °C 24.3 °F /  -4.3 °C 30.34in /  1027.3hPa ENE 2.9mph /  4.7km/h 6.0mph /  9.7km/h 32% 0.00in /  0mm 0.0 W/m2
04:01 53.4 °F /  11.9 °C 24.3 °F /  -4.3 °C 30.34in /  1027.3hPa Calm   3.0mph /  4.8km/h 32% 0.00in /  0mm 0.0 W/m2
04:06 53.2 °F /  11.8 °C 24.1 °F /  -4.4 °C 30.34in /  1027.3hPa Calm   5.0mph /  8km/h 32% 0.00in /  0mm 0.0 W/m2
04:11 53.1 °F /  11.7 °C 23.9 °F /  -4.5 °C 30.34in /  1027.3hPa NNE 0.9mph /  1.4km/h 5.0mph /  8km/h 32% 0.00in /  0mm 0.0 W/m2
04:16 53.1 °F /  11.7 °C 24.8 °F /  -4 °C 30.34in /  1027.3hPa West 0.9mph /  1.4km/h 11.0mph /  17.7km/h 33% 0.00in /  0mm 0.0 W/m2
04:22 53.1 °F /  11.7 °C 24.8 °F /  -4 °C 30.34in /  1027.3hPa SE 2.0mph /  3.2km/h 6.0mph /  9.7km/h 33% 0.00in /  0mm 0.0 W/m2
04:27 53.1 °F /  11.7 °C 24.8 °F /  -4 °C 30.34in /  1027.3hPa ESE 0.9mph /  1.4km/h 8.0mph /  12.9km/h 33% 0.00in /  0mm 0.0 W/m2
04:32 53.1 °F /  11.7 °C 24.8 °F /  -4 °C 30.34in /  1027.3hPa East 2.9mph /  4.7km/h 4.0mph /  6.4km/h 33% 0.00in /  0mm 0.0 W/m2
04:33 53.1 °F /  11.7 °C 24.8 °F /  -4 °C 30.34in /  1027.3hPa ESE 2.0mph /  3.2km/h 6.0mph /  9.7km/h 33% 0.00in /  0mm 0.0 W/m2
04:38 52.9 °F /  11.6 °C 24.6 °F /  -4.1 °C 30.34in /  1027.3hPa NE 4.0mph /  6.4km/h 8.0mph /  12.9km/h 33% 0.00in /  0mm 0.0 W/m2
04:43 52.9 °F /  11.6 °C 24.6 °F /  -4.1 °C 30.34in /  1027.3hPa NW 0.9mph /  1.4km/h 5.0mph /  8km/h 33% 0.00in /  0mm 0.0 W/m2
04:48 52.9 °F /  11.6 °C 24.6 °F /  -4.1 °C 30.34in /  1027.3hPa ENE 2.0mph /  3.2km/h 6.0mph /  9.7km/h 33% 0.00in /  0mm 0.0 W/m2
04:58 52.9 °F /  11.6 °C 24.6 °F /  -4.1 °C 30.34in /  1027.3hPa ESE 2.9mph /  4.7km/h 4.0mph /  6.4km/h 33% 0.00in /  0mm 0.0 W/m2
05:04 52.7 °F /  11.5 °C 24.4 °F /  -4.2 °C 30.34in /  1027.3hPa ENE 4.9mph /  7.9km/h 5.0mph /  8km/h 33% 0.00in /  0mm 0.0 W/m2
05:15 52.5 °F /  11.4 °C 24.3 °F /  -4.3 °C 30.35in /  1027.7hPa South 2.9mph /  4.7km/h 10.0mph /  16.1km/h 33% 0.00in /  0mm 0.0 W/m2
05:21 52.3 °F /  11.3 °C 23.4 °F /  -4.8 °C 30.35in /  1027.7hPa ENE 4.0mph /  6.4km/h 7.0mph /  11.3km/h 32% 0.00in /  0mm 0.0 W/m2
05:25 52.3 °F /  11.3 °C 23.4 °F /  -4.8 °C 29.93in /  1013.4hPa NE 2.0mph /  3.2km/h 9.0mph /  14.5km/h 32% 0.00in /  0mm 0.0 W/m2
05:30 52.3 °F /  11.3 °C 24.1 °F /  -4.4 °C 30.36in /  1028hPa ESE 2.9mph /  4.7km/h 8.0mph /  12.9km/h 33% 0.00in /  0mm 0.0 W/m2
05:32 52.3 °F /  11.3 °C 24.1 °F /  -4.4 °C 30.36in /  1028hPa East 2.0mph /  3.2km/h 6.0mph /  9.7km/h 33% 0.00in /  0mm 0.0 W/m2
05:37 52.3 °F /  11.3 °C 24.1 °F /  -4.4 °C 30.35in /  1027.7hPa ESE 2.9mph /  4.7km/h 3.0mph /  4.8km/h 33% 0.00in /  0mm 0.0 W/m2
05:42 52.2 °F /  11.2 °C 23.9 °F /  -4.5 °C 30.36in /  1028hPa ESE 4.9mph /  7.9km/h 5.0mph /  8km/h 33% 0.00in /  0mm 0.0 W/m2
05:43 52.2 °F /  11.2 °C 23.9 °F /  -4.5 °C 30.36in /  1028hPa ESE 2.0mph /  3.2km/h 9.0mph /  14.5km/h 33% 0.00in /  0mm 0.0 W/m2
05:48 52.2 °F /  11.2 °C 23.9 °F /  -4.5 °C 30.36in /  1028hPa NNE 4.0mph /  6.4km/h 7.0mph /  11.3km/h 33% 0.00in /  0mm 0.0 W/m2
05:54 52.0 °F /  11.1 °C 23.7 °F /  -4.6 °C 30.36in /  1028hPa SE 0.9mph /  1.4km/h 5.0mph /  8km/h 33% 0.00in /  0mm 0.0 W/m2
05:59 51.8 °F /  11 °C 23.5 °F /  -4.7 °C 30.36in /  1028hPa ESE 2.0mph /  3.2km/h 5.0mph /  8km/h 33% 0.00in /  0mm 0.0 W/m2
06:04 51.6 °F /  10.9 °C 24.1 °F /  -4.4 °C 30.36in /  1028hPa South 2.0mph /  3.2km/h 11.0mph /  17.7km/h 34% 0.00in /  0mm 5.0 W/m2
06:09 51.4 °F /  10.8 °C 24.1 °F /  -4.4 °C 30.36in /  1028hPa Calm   9.0mph /  14.5km/h 34% 0.00in /  0mm 7.0 W/m2
06:14 51.3 °F /  10.7 °C 23.9 °F /  -4.5 °C 30.37in /  1028.3hPa NE 4.0mph /  6.4km/h 7.0mph /  11.3km/h 34% 0.00in /  0mm 9.0 W/m2
06:19 51.1 °F /  10.6 °C 23.7 °F /  -4.6 °C 30.37in /  1028.3hPa ESE 8.1mph /  13km/h 8.1mph /  13km/h 34% 0.00in /  0mm 9.0 W/m2
06:24 51.1 °F /  10.6 °C 24.4 °F /  -4.2 °C 30.37in /  1028.3hPa ENE 2.9mph /  4.7km/h 6.0mph /  9.7km/h 35% 0.00in /  0mm 11.0 W/m2
06:29 50.7 °F /  10.4 °C 24.1 °F /  -4.4 °C 30.37in /  1028.3hPa North 4.0mph /  6.4km/h 8.0mph /  12.9km/h 35% 0.00in /  0mm 12.0 W/m2
06:34 50.9 °F /  10.5 °C 24.3 °F /  -4.3 °C 30.37in /  1028.3hPa ENE 2.9mph /  4.7km/h 10.0mph /  16.1km/h 35% 0.00in /  0mm 14.0 W/m2
06:42 51.1 °F /  10.6 °C 24.4 °F /  -4.2 °C 30.38in /  1028.7hPa ENE 2.9mph /  4.7km/h 11.0mph /  17.7km/h 35% 0.00in /  0mm 16.0 W/m2
06:47 51.3 °F /  10.7 °C 24.6 °F /  -4.1 °C 30.38in /  1028.7hPa NE 6.9mph /  11.1km/h 7.0mph /  11.3km/h 35% 0.00in /  0mm 18.0 W/m2
06:53 51.4 °F /  10.8 °C 24.1 °F /  -4.4 °C 30.38in /  1028.7hPa NE 8.1mph /  13km/h 13.0mph /  20.9km/h 34% 0.00in /  0mm 18.0 W/m2
06:58 51.6 °F /  10.9 °C 24.1 °F /  -4.4 °C 30.38in /  1028.7hPa NE 6.0mph /  9.7km/h 10.0mph /  16.1km/h 34% 0.00in /  0mm 19.0 W/m2
07:03 52.0 °F /  11.1 °C 23.7 °F /  -4.6 °C 30.38in /  1028.7hPa NNE 6.9mph /  11.1km/h 10.0mph /  16.1km/h 33% 0.00in /  0mm 21.0 W/m2
07:08 52.2 °F /  11.2 °C 23.9 °F /  -4.5 °C 30.38in /  1028.7hPa NE 8.1mph /  13km/h 12.0mph /  19.3km/h 33% 0.00in /  0mm 21.0 W/m2
07:13 52.5 °F /  11.4 °C 24.3 °F /  -4.3 °C 30.39in /  1029hPa ESE 8.1mph /  13km/h 12.0mph /  19.3km/h 33% 0.00in /  0mm 44.0 W/m2
07:18 52.9 °F /  11.6 °C 23.9 °F /  -4.5 °C 30.39in /  1029hPa NE 2.0mph /  3.2km/h 9.0mph /  14.5km/h 32% 0.00in /  0mm 287.0 W/m2
07:23 53.2 °F /  11.8 °C 24.1 °F /  -4.4 °C 30.39in /  1029hPa North 6.0mph /  9.7km/h 12.0mph /  19.3km/h 32% 0.00in /  0mm 309.0 W/m2
07:33 54.3 °F /  12.4 °C 24.3 °F /  -4.3 °C 30.39in /  1029hPa ESE 0.9mph /  1.4km/h 11.0mph /  17.7km/h 31% 0.00in /  0mm 352.0 W/m2
07:39 55.0 °F /  12.8 °C 24.1 °F /  -4.4 °C 30.39in /  1029hPa Calm   9.0mph /  14.5km/h 30% 0.00in /  0mm 373.0 W/m2
07:44 55.6 °F /  13.1 °C 23.9 °F /  -4.5 °C 30.39in /  1029hPa Calm   9.0mph /  14.5km/h 29% 0.00in /  0mm 394.0 W/m2
07:49 56.3 °F /  13.5 °C 24.4 °F /  -4.2 °C 30.39in /  1029hPa NNE 2.9mph /  4.7km/h 9.0mph /  14.5km/h 29% 0.00in /  0mm 415.0 W/m2
07:54 56.8 °F /  13.8 °C 24.1 °F /  -4.4 °C 30.38in /  1028.7hPa ESE 8.9mph /  14.3km/h 13.0mph /  20.9km/h 28% 0.00in /  0mm 436.0 W/m2
07:59 57.4 °F /  14.1 °C 24.6 °F /  -4.1 °C 30.38in /  1028.7hPa North 4.0mph /  6.4km/h 7.0mph /  11.3km/h 28% 0.00in /  0mm 455.0 W/m2
08:09 57.9 °F /  14.4 °C 24.1 °F /  -4.4 °C 30.38in /  1028.7hPa SSE 2.0mph /  3.2km/h 10.0mph /  16.1km/h 27% 0.00in /  0mm 497.0 W/m2
08:14 58.3 °F /  14.6 °C 24.4 °F /  -4.2 °C 30.38in /  1028.7hPa SE 4.9mph /  7.9km/h 11.0mph /  17.7km/h 27% 0.00in /  0mm 517.0 W/m2
08:20 58.5 °F /  14.7 °C 24.6 °F /  -4.1 °C 30.38in /  1028.7hPa ESE 2.0mph /  3.2km/h 6.0mph /  9.7km/h 27% 0.00in /  0mm 538.0 W/m2
08:25 58.8 °F /  14.9 °C 25.0 °F /  -3.9 °C 30.38in /  1028.7hPa ESE 6.0mph /  9.7km/h 11.0mph /  17.7km/h 27% 0.00in /  0mm 557.0 W/m2
08:30 59.2 °F /  15.1 °C 24.3 °F /  -4.3 °C 30.38in /  1028.7hPa East 8.1mph /  13km/h 10.0mph /  16.1km/h 26% 0.00in /  0mm 577.0 W/m2
08:35 59.4 °F /  15.2 °C 25.3 °F /  -3.7 °C 30.38in /  1028.7hPa NE 4.9mph /  7.9km/h 13.0mph /  20.9km/h 27% 0.00in /  0mm 596.0 W/m2
08:40 59.5 °F /  15.3 °C 24.6 °F /  -4.1 °C 30.38in /  1028.7hPa ENE 4.0mph /  6.4km/h 14.0mph /  22.5km/h 26% 0.00in /  0mm 617.0 W/m2
08:45 59.7 °F /  15.4 °C 25.7 °F /  -3.5 °C 30.38in /  1028.7hPa East 10.1mph /  16.3km/h 10.1mph /  16.3km/h 27% 0.00in /  0mm 633.0 W/m2
08:50 60.4 °F /  15.8 °C 25.3 °F /  -3.7 °C 30.38in /  1028.7hPa ENE 4.0mph /  6.4km/h 9.0mph /  14.5km/h 26% 0.00in /  0mm 652.0 W/m2
08:56 61.2 °F /  16.2 °C 25.0 °F /  -3.9 °C 30.37in /  1028.3hPa East 2.9mph /  4.7km/h 10.0mph /  16.1km/h 25% 0.00in /  0mm 673.0 W/m2
09:02 61.5 °F /  16.4 °C 25.3 °F /  -3.7 °C 30.37in /  1028.3hPa ESE 6.9mph /  11.1km/h 12.0mph /  19.3km/h 25% 0.00in /  0mm 693.0 W/m2
09:07 62.1 °F /  16.7 °C 25.9 °F /  -3.4 °C 30.37in /  1028.3hPa SE 2.9mph /  4.7km/h 10.0mph /  16.1km/h 25% 0.00in /  0mm 712.0 W/m2
09:13 62.4 °F /  16.9 °C 25.2 °F /  -3.8 °C 30.37in /  1028.3hPa East 6.0mph /  9.7km/h 15.0mph /  24.1km/h 24% 0.00in /  0mm 728.0 W/m2
09:18 63.0 °F /  17.2 °C 25.5 °F /  -3.6 °C 30.37in /  1028.3hPa NNE 4.9mph /  7.9km/h 9.0mph /  14.5km/h 24% 0.00in /  0mm 745.0 W/m2
09:23 63.3 °F /  17.4 °C 25.9 °F /  -3.4 °C 30.38in /  1028.7hPa ESE 4.9mph /  7.9km/h 9.0mph /  14.5km/h 24% 0.00in /  0mm 763.0 W/m2
09:28 63.5 °F /  17.5 °C 26.1 °F /  -3.3 °C 30.37in /  1028.3hPa East 8.9mph /  14.3km/h 9.0mph /  14.5km/h 24% 0.00in /  0mm 780.0 W/m2
09:33 63.9 °F /  17.7 °C 26.4 °F /  -3.1 °C 30.37in /  1028.3hPa Calm   8.0mph /  12.9km/h 24% 0.00in /  0mm 796.0 W/m2
09:38 64.4 °F /  18 °C 25.7 °F /  -3.5 °C 30.37in /  1028.3hPa NE 2.9mph /  4.7km/h 11.0mph /  17.7km/h 23% 0.00in /  0mm 812.0 W/m2
09:43 64.8 °F /  18.2 °C 25.0 °F /  -3.9 °C 30.37in /  1028.3hPa ENE 4.9mph /  7.9km/h 10.0mph /  16.1km/h 22% 0.00in /  0mm 828.0 W/m2
09:48 64.9 °F /  18.3 °C 25.2 °F /  -3.8 °C 30.37in /  1028.3hPa ESE 6.9mph /  11.1km/h 7.0mph /  11.3km/h 22% 0.00in /  0mm 840.0 W/m2
09:54 65.5 °F /  18.6 °C 25.7 °F /  -3.5 °C 30.36in /  1028hPa NE 2.0mph /  3.2km/h 11.0mph /  17.7km/h 22% 0.00in /  0mm 858.0 W/m2
09:59 66.0 °F /  18.9 °C 27.1 °F /  -2.7 °C 30.36in /  1028hPa East 2.9mph /  4.7km/h 9.0mph /  14.5km/h 23% 0.00in /  0mm 870.0 W/m2
10:05 66.7 °F /  19.3 °C 26.6 °F /  -3 °C 30.36in /  1028hPa NE 4.9mph /  7.9km/h 11.0mph /  17.7km/h 22% 0.00in /  0mm 888.0 W/m2
10:10 67.3 °F /  19.6 °C 26.1 °F /  -3.3 °C 30.36in /  1028hPa East 4.9mph /  7.9km/h 9.0mph /  14.5km/h 21% 0.00in /  0mm 900.0 W/m2
10:15 67.8 °F /  19.9 °C 26.4 °F /  -3.1 °C 30.36in /  1028hPa ENE 4.0mph /  6.4km/h 9.0mph /  14.5km/h 21% 0.00in /  0mm 914.0 W/m2
10:20 68.5 °F /  20.3 °C 25.9 °F /  -3.4 °C 30.36in /  1028hPa NNE 0.9mph /  1.4km/h 6.0mph /  9.7km/h 20% 0.00in /  0mm 928.0 W/m2
10:25 68.7 °F /  20.4 °C 26.1 °F /  -3.3 °C 30.36in /  1028hPa East 6.0mph /  9.7km/h 10.0mph /  16.1km/h 20% 0.00in /  0mm 937.0 W/m2
10:30 69.3 °F /  20.7 °C 26.4 °F /  -3.1 °C 30.36in /  1028hPa NE 2.9mph /  4.7km/h 7.0mph /  11.3km/h 20% 0.00in /  0mm 949.0 W/m2
10:35 69.8 °F /  21 °C 27.0 °F /  -2.8 °C 30.36in /  1028hPa NE 2.0mph /  3.2km/h 11.0mph /  17.7km/h 20% 0.00in /  0mm 962.0 W/m2
10:40 70.3 °F /  21.3 °C 26.1 °F /  -3.3 °C 30.35in /  1027.7hPa WNW 2.0mph /  3.2km/h 9.0mph /  14.5km/h 19% 0.00in /  0mm 974.0 W/m2
10:46 70.9 °F /  21.6 °C 25.3 °F /  -3.7 °C 30.35in /  1027.7hPa NE 2.9mph /  4.7km/h 7.0mph /  11.3km/h 18% 0.00in /  0mm 983.0 W/m2
10:51 71.2 °F /  21.8 °C 25.5 °F /  -3.6 °C 30.35in /  1027.7hPa North 8.1mph /  13km/h 10.0mph /  16.1km/h 18% 0.00in /  0mm 991.0 W/m2
10:56 71.8 °F /  22.1 °C 26.1 °F /  -3.3 °C 30.35in /  1027.7hPa NNW 2.0mph /  3.2km/h 9.0mph /  14.5km/h 18% 0.00in /  0mm 1000.0 W/m2
11:02 72.1 °F /  22.3 °C 26.2 °F /  -3.2 °C 30.34in /  1027.3hPa NNE 2.0mph /  3.2km/h 10.0mph /  16.1km/h 18% 0.00in /  0mm 1013.0 W/m2
11:07 72.5 °F /  22.5 °C 26.6 °F /  -3 °C 30.34in /  1027.3hPa WNW 2.9mph /  4.7km/h 5.0mph /  8km/h 18% 0.00in /  0mm 1021.0 W/m2
11:12 72.7 °F /  22.6 °C 25.3 °F /  -3.7 °C 30.34in /  1027.3hPa ESE 0.9mph /  1.4km/h 9.0mph /  14.5km/h 17% 0.00in /  0mm 1027.0 W/m2
11:17 73.0 °F /  22.8 °C 24.3 °F /  -4.3 °C 30.34in /  1027.3hPa North 2.9mph /  4.7km/h 7.0mph /  11.3km/h 16% 0.00in /  0mm 1035.0 W/m2
11:22 73.6 °F /  23.1 °C 26.1 °F /  -3.3 °C 30.34in /  1027.3hPa North 0.9mph /  1.4km/h 5.0mph /  8km/h 17% 0.00in /  0mm 1042.0 W/m2
11:27 74.1 °F /  23.4 °C 25.0 °F /  -3.9 °C 30.34in /  1027.3hPa NNW 6.9mph /  11.1km/h 9.0mph /  14.5km/h 16% 0.00in /  0mm 1048.0 W/m2
11:32 74.5 °F /  23.6 °C 25.3 °F /  -3.7 °C 30.34in /  1027.3hPa NNW 4.0mph /  6.4km/h 8.0mph /  12.9km/h 16% 0.00in /  0mm 1056.0 W/m2
11:38 74.8 °F /  23.8 °C 25.7 °F /  -3.5 °C 30.33in /  1027hPa Calm   4.0mph /  6.4km/h 16% 0.00in /  0mm 1062.0 W/m2
11:43 75.0 °F /  23.9 °C 25.7 °F /  -3.5 °C 30.33in /  1027hPa NW 4.0mph /  6.4km/h 7.0mph /  11.3km/h 16% 0.00in /  0mm 1067.0 W/m2
11:48 75.6 °F /  24.2 °C 24.6 °F /  -4.1 °C 30.33in /  1027hPa NNE 4.9mph /  7.9km/h 9.0mph /  14.5km/h 15% 0.00in /  0mm 1063.0 W/m2
11:53 75.6 °F /  24.2 °C 24.6 °F /  -4.1 °C 30.32in /  1026.6hPa NNE 4.9mph /  7.9km/h 7.0mph /  11.3km/h 15% 0.00in /  0mm 1072.0 W/m2
12:04 76.5 °F /  24.7 °C 23.7 °F /  -4.6 °C 30.32in /  1026.6hPa NNW 2.9mph /  4.7km/h 8.0mph /  12.9km/h 14% 0.00in /  0mm 1079.0 W/m2
12:09 77.0 °F /  25 °C 22.5 °F /  -5.3 °C 30.32in /  1026.6hPa Calm   6.0mph /  9.7km/h 13% 0.00in /  0mm 1085.0 W/m2
12:14 77.2 °F /  25.1 °C 24.3 °F /  -4.3 °C 30.31in /  1026.3hPa SW 2.9mph /  4.7km/h 9.0mph /  14.5km/h 14% 0.00in /  0mm 1085.0 W/m2
12:19 76.8 °F /  24.9 °C 24.1 °F /  -4.4 °C 30.32in /  1026.6hPa NNW 2.9mph /  4.7km/h 8.0mph /  12.9km/h 14% 0.00in /  0mm 1086.0 W/m2
12:25 77.4 °F /  25.2 °C 22.6 °F /  -5.2 °C 30.32in /  1026.6hPa North 4.0mph /  6.4km/h 7.0mph /  11.3km/h 13% 0.00in /  0mm 1086.0 W/m2
12:30 77.7 °F /  25.4 °C 23.0 °F /  -5 °C 30.32in /  1026.6hPa WNW 2.9mph /  4.7km/h 5.0mph /  8km/h 13% 0.00in /  0mm 1079.0 W/m2
12:35 78.1 °F /  25.6 °C 25.0 °F /  -3.9 °C 30.32in /  1026.6hPa Calm   5.0mph /  8km/h 14% 0.00in /  0mm 1079.0 W/m2
12:40 78.1 °F /  25.6 °C 21.4 °F /  -5.9 °C 30.31in /  1026.3hPa North 0.9mph /  1.4km/h 7.0mph /  11.3km/h 12% 0.00in /  0mm 1086.0 W/m2
12:45 77.7 °F /  25.4 °C 23.0 °F /  -5 °C 30.31in /  1026.3hPa Calm   4.0mph /  6.4km/h 13% 0.00in /  0mm 1078.0 W/m2
12:48 78.1 °F /  25.6 °C 23.2 °F /  -4.9 °C 30.31in /  1026.3hPa West 2.9mph /  4.7km/h 9.0mph /  14.5km/h 13% 0.00in /  0mm 1078.0 W/m2
12:53 77.7 °F /  25.4 °C 23.0 °F /  -5 °C 30.31in /  1026.3hPa WSW 2.9mph /  4.7km/h 5.0mph /  8km/h 13% 0.00in /  0mm 1078.0 W/m2
12:58 77.7 °F /  25.4 °C 23.0 °F /  -5 °C 30.31in /  1026.3hPa WSW 2.0mph /  3.2km/h 8.0mph /  12.9km/h 13% 0.00in /  0mm 1079.0 W/m2
13:03 77.7 °F /  25.4 °C 23.0 °F /  -5 °C 30.31in /  1026.3hPa NNW 4.9mph /  7.9km/h 9.0mph /  14.5km/h 13% 0.00in /  0mm 1078.0 W/m2
13:08 78.3 °F /  25.7 °C 21.6 °F /  -5.8 °C 30.31in /  1026.3hPa NE 0.9mph /  1.4km/h 8.0mph /  12.9km/h 12% 0.00in /  0mm 1071.0 W/m2
13:14 78.4 °F /  25.8 °C 21.6 °F /  -5.8 °C 30.30in /  1026hPa NNE 4.0mph /  6.4km/h 4.0mph /  6.4km/h 12% 0.00in /  0mm 1071.0 W/m2
13:19 79.0 °F /  26.1 °C 22.1 °F /  -5.5 °C 30.29in /  1025.6hPa NW 2.9mph /  4.7km/h 8.0mph /  12.9km/h 12% 0.00in /  0mm 1062.0 W/m2
13:24 79.5 °F /  26.4 °C 22.5 °F /  -5.3 °C 30.30in /  1026hPa SSW 0.9mph /  1.4km/h 6.0mph /  9.7km/h 12% 0.00in /  0mm 1055.0 W/m2
13:29 79.3 °F /  26.3 °C 22.3 °F /  -5.4 °C 30.29in /  1025.6hPa Calm   4.0mph /  6.4km/h 12% 0.00in /  0mm 1049.0 W/m2
13:35 79.7 °F /  26.5 °C 20.5 °F /  -6.4 °C 30.29in /  1025.6hPa Calm   8.0mph /  12.9km/h 11% 0.00in /  0mm 1042.0 W/m2
13:40 80.2 °F /  26.8 °C 23.0 °F /  -5 °C 30.29in /  1025.6hPa NW 0.9mph /  1.4km/h 9.0mph /  14.5km/h 12% 0.00in /  0mm 1037.0 W/m2
13:45 81.0 °F /  27.2 °C 21.6 °F /  -5.8 °C 30.28in /  1025.3hPa Calm   5.0mph /  8km/h 11% 0.00in /  0mm 1032.0 W/m2
13:50 81.0 °F /  27.2 °C 21.6 °F /  -5.8 °C 30.28in /  1025.3hPa Calm   8.0mph /  12.9km/h 11% 0.00in /  0mm 1023.0 W/m2
13:56 81.0 °F /  27.2 °C 21.6 °F /  -5.8 °C 30.28in /  1025.3hPa ENE 4.9mph /  7.9km/h 5.0mph /  8km/h 11% 0.00in /  0mm 1011.0 W/m2
14:01 80.2 °F /  26.8 °C 21.0 °F /  -6.1 °C 30.28in /  1025.3hPa WSW 0.9mph /  1.4km/h 7.0mph /  11.3km/h 11% 0.00in /  0mm 1002.0 W/m2
14:06 80.1 °F /  26.7 °C 22.8 °F /  -5.1 °C 30.27in /  1024.9hPa Calm   2.0mph /  3.2km/h 12% 0.00in /  0mm 998.0 W/m2
14:11 80.8 °F /  27.1 °C 21.4 °F /  -5.9 °C 30.27in /  1024.9hPa ENE 6.9mph /  11.1km/h 10.0mph /  16.1km/h 11% 0.00in /  0mm 986.0 W/m2
14:16 81.3 °F /  27.4 °C 19.6 °F /  -6.9 °C 30.27in /  1024.9hPa WNW 4.9mph /  7.9km/h 6.0mph /  9.7km/h 10% 0.00in /  0mm 976.0 W/m2
14:21 81.7 °F /  27.6 °C 19.8 °F /  -6.8 °C 30.26in /  1024.6hPa SW 0.9mph /  1.4km/h 6.0mph /  9.7km/h 10% 0.00in /  0mm 969.0 W/m2
14:26 81.7 °F /  27.6 °C 19.8 °F /  -6.8 °C 30.26in /  1024.6hPa SSW 2.0mph /  3.2km/h 7.0mph /  11.3km/h 10% 0.00in /  0mm 958.0 W/m2
14:31 81.5 °F /  27.5 °C 19.8 °F /  -6.8 °C 30.26in /  1024.6hPa WSW 0.9mph /  1.4km/h 3.0mph /  4.8km/h 10% 0.00in /  0mm 944.0 W/m2
14:36 81.7 °F /  27.6 °C 19.8 °F /  -6.8 °C 30.26in /  1024.6hPa West 0.9mph /  1.4km/h 3.0mph /  4.8km/h 10% 0.00in /  0mm 932.0 W/m2
14:41 81.9 °F /  27.7 °C 17.4 °F /  -8.1 °C 30.25in /  1024.3hPa SSW 4.0mph /  6.4km/h 9.0mph /  14.5km/h 9% 0.00in /  0mm 926.0 W/m2
14:47 82.4 °F /  28 °C 20.3 °F /  -6.5 °C 30.25in /  1024.3hPa WSW 4.0mph /  6.4km/h 4.0mph /  6.4km/h 10% 0.00in /  0mm 916.0 W/m2
14:52 82.8 °F /  28.2 °C 18.1 °F /  -7.7 °C 30.25in /  1024.3hPa NNW 0.9mph /  1.4km/h 8.0mph /  12.9km/h 9% 0.00in /  0mm 898.0 W/m2
15:02 82.4 °F /  28 °C 20.3 °F /  -6.5 °C 30.24in /  1023.9hPa West 2.0mph /  3.2km/h 8.0mph /  12.9km/h 10% 0.00in /  0mm 877.0 W/m2
15:07 83.1 °F /  28.4 °C 18.5 °F /  -7.5 °C 30.24in /  1023.9hPa WSW 2.0mph /  3.2km/h 6.0mph /  9.7km/h 9% 0.00in /  0mm 863.0 W/m2
15:13 84.0 °F /  28.9 °C 19.0 °F /  -7.2 °C 30.23in /  1023.6hPa West 2.0mph /  3.2km/h 9.0mph /  14.5km/h 9% 0.00in /  0mm 844.0 W/m2
15:18 84.6 °F /  29.2 °C 19.6 °F /  -6.9 °C 30.23in /  1023.6hPa North 2.9mph /  4.7km/h 5.0mph /  8km/h 9% 0.00in /  0mm 828.0 W/m2
15:23 85.1 °F /  29.5 °C 19.9 °F /  -6.7 °C 30.23in /  1023.6hPa South 4.0mph /  6.4km/h 4.0mph /  6.4km/h 9% 0.00in /  0mm 812.0 W/m2
15:29 85.3 °F /  29.6 °C 20.1 °F /  -6.6 °C 30.23in /  1023.6hPa West 0.9mph /  1.4km/h 8.0mph /  12.9km/h 9% 0.00in /  0mm 793.0 W/m2
15:34 85.6 °F /  29.8 °C 17.6 °F /  -8 °C 30.23in /  1023.6hPa West 4.9mph /  7.9km/h 9.0mph /  14.5km/h 8% 0.00in /  0mm 780.0 W/m2
15:39 85.1 °F /  29.5 °C 17.2 °F /  -8.2 °C 30.23in /  1023.6hPa West 2.0mph /  3.2km/h 14.0mph /  22.5km/h 8% 0.00in /  0mm 766.0 W/m2
15:44 84.4 °F /  29.1 °C 16.7 °F /  -8.5 °C 30.23in /  1023.6hPa WSW 2.9mph /  4.7km/h 8.0mph /  12.9km/h 8% 0.00in /  0mm 751.0 W/m2
15:49 84.0 °F /  28.9 °C 16.3 °F /  -8.7 °C 30.23in /  1023.6hPa NW 0.9mph /  1.4km/h 8.0mph /  12.9km/h 8% 0.00in /  0mm 733.0 W/m2
15:54 84.7 °F /  29.3 °C 13.8 °F /  -10.1 °C 30.22in /  1023.2hPa North 2.0mph /  3.2km/h 7.0mph /  11.3km/h 7% 0.00in /  0mm 717.0 W/m2
15:59 84.9 °F /  29.4 °C 14.0 °F /  -10 °C 30.23in /  1023.6hPa WNW 0.9mph /  1.4km/h 10.0mph /  16.1km/h 7% 0.00in /  0mm 700.0 W/m2
16:05 84.6 °F /  29.2 °C 16.9 °F /  -8.4 °C 30.22in /  1023.2hPa WSW 0.9mph /  1.4km/h 8.0mph /  12.9km/h 8% 0.00in /  0mm 680.0 W/m2
16:10 84.4 °F /  29.1 °C 13.6 °F /  -10.2 °C 30.23in /  1023.6hPa WSW 4.0mph /  6.4km/h 13.0mph /  20.9km/h 7% 0.00in /  0mm 663.0 W/m2
16:15 83.8 °F /  28.8 °C 16.3 °F /  -8.7 °C 30.22in /  1023.2hPa WSW 4.0mph /  6.4km/h 4.0mph /  6.4km/h 8% 0.00in /  0mm 647.0 W/m2
16:21 82.9 °F /  28.3 °C 15.6 °F /  -9.1 °C 30.22in /  1023.2hPa SW 2.9mph /  4.7km/h 11.0mph /  17.7km/h 8% 0.00in /  0mm 624.0 W/m2
16:27 82.6 °F /  28.1 °C 15.3 °F /  -9.3 °C 30.22in /  1023.2hPa WSW 4.0mph /  6.4km/h 12.0mph /  19.3km/h 8% 0.00in /  0mm 601.0 W/m2
16:32 82.4 °F /  28 °C 15.3 °F /  -9.3 °C 30.21in /  1022.9hPa WSW 0.9mph /  1.4km/h 3.0mph /  4.8km/h 8% 0.00in /  0mm 582.0 W/m2
16:38 82.8 °F /  28.2 °C 15.4 °F /  -9.2 °C 30.21in /  1022.9hPa West 6.9mph /  11.1km/h 12.0mph /  19.3km/h 8% 0.00in /  0mm 563.0 W/m2
16:43 82.6 °F /  28.1 °C 15.3 °F /  -9.3 °C 30.21in /  1022.9hPa South 2.9mph /  4.7km/h 8.0mph /  12.9km/h 8% 0.00in /  0mm 543.0 W/m2
16:48 82.8 °F /  28.2 °C 15.4 °F /  -9.2 °C 30.21in /  1022.9hPa Calm   6.0mph /  9.7km/h 8% 0.00in /  0mm 524.0 W/m2
16:54 82.8 °F /  28.2 °C 12.4 °F /  -10.9 °C 30.21in /  1022.9hPa WSW 4.9mph /  7.9km/h 10.0mph /  16.1km/h 7% 0.00in /  0mm 503.0 W/m2
16:59 82.8 °F /  28.2 °C 15.4 °F /  -9.2 °C 30.21in /  1022.9hPa West 6.0mph /  9.7km/h 8.0mph /  12.9km/h 8% 0.00in /  0mm 483.0 W/m2
17:04 82.9 °F /  28.3 °C 15.6 °F /  -9.1 °C 30.21in /  1022.9hPa West 2.0mph /  3.2km/h 11.0mph /  17.7km/h 8% 0.00in /  0mm 462.0 W/m2
17:09 82.8 °F /  28.2 °C 15.4 °F /  -9.2 °C 30.21in /  1022.9hPa Calm   9.0mph /  14.5km/h 8% 0.00in /  0mm 443.0 W/m2
17:14 82.9 °F /  28.3 °C 12.6 °F /  -10.8 °C 30.21in /  1022.9hPa SW 0.9mph /  1.4km/h 7.0mph /  11.3km/h 7% 0.00in /  0mm 425.0 W/m2
17:19 83.1 °F /  28.4 °C 12.7 °F /  -10.7 °C 30.22in /  1023.2hPa WSW 4.9mph /  7.9km/h 9.0mph /  14.5km/h 7% 0.00in /  0mm 404.0 W/m2
17:24 82.8 °F /  28.2 °C 12.4 °F /  -10.9 °C 30.21in /  1022.9hPa Calm   7.0mph /  11.3km/h 7% 0.00in /  0mm 381.0 W/m2
17:39 83.3 °F /  28.5 °C 12.7 °F /  -10.7 °C 30.21in /  1022.9hPa WSW 6.9mph /  11.1km/h 8.0mph /  12.9km/h 7% 0.00in /  0mm 323.0 W/m2
17:44 83.5 °F /  28.6 °C 16.0 °F /  -8.9 °C 30.21in /  1022.9hPa Calm   9.0mph /  14.5km/h 8% 0.00in /  0mm 304.0 W/m2
17:49 83.5 °F /  28.6 °C 12.9 °F /  -10.6 °C 30.21in /  1022.9hPa North 2.0mph /  3.2km/h 7.0mph /  11.3km/h 7% 0.00in /  0mm 279.0 W/m2
17:54 83.5 °F /  28.6 °C 12.9 °F /  -10.6 °C 30.21in /  1022.9hPa West 6.9mph /  11.1km/h 11.0mph /  17.7km/h 7% 0.00in /  0mm 260.0 W/m2
18:00 82.2 °F /  27.9 °C 15.1 °F /  -9.4 °C 30.21in /  1022.9hPa WNW 6.9mph /  11.1km/h 10.0mph /  16.1km/h 8% 0.00in /  0mm 236.0 W/m2
18:05 82.0 °F /  27.8 °C 14.9 °F /  -9.5 °C 30.22in /  1023.2hPa West 2.9mph /  4.7km/h 8.0mph /  12.9km/h 8% 0.00in /  0mm 216.0 W/m2
18:10 82.0 °F /  27.8 °C 11.8 °F /  -11.2 °C 30.22in /  1023.2hPa Calm   2.0mph /  3.2km/h 7% 0.00in /  0mm 193.0 W/m2
18:15 82.2 °F /  27.9 °C 15.1 °F /  -9.4 °C 30.21in /  1022.9hPa West 0.9mph /  1.4km/h 4.0mph /  6.4km/h 8% 0.00in /  0mm 134.0 W/m2
18:20 82.2 °F /  27.9 °C 12.0 °F /  -11.1 °C 30.22in /  1023.2hPa West 0.9mph /  1.4km/h 7.0mph /  11.3km/h 7% 0.00in /  0mm 91.0 W/m2
18:25 81.9 °F /  27.7 °C 14.7 °F /  -9.6 °C 30.21in /  1022.9hPa WSW 4.9mph /  7.9km/h 7.0mph /  11.3km/h 8% 0.00in /  0mm 37.0 W/m2
18:30 81.3 °F /  27.4 °C 14.4 °F /  -9.8 °C 30.22in /  1023.2hPa West 2.0mph /  3.2km/h 5.0mph /  8km/h 8% 0.00in /  0mm 35.0 W/m2
18:35 80.8 °F /  27.1 °C 14.0 °F /  -10 °C 30.21in /  1022.9hPa WSW 2.9mph /  4.7km/h 11.0mph /  17.7km/h 8% 0.00in /  0mm 26.0 W/m2
18:41 79.7 °F /  26.5 °C 13.1 °F /  -10.5 °C 30.22in /  1023.2hPa West 2.0mph /  3.2km/h 5.0mph /  8km/h 8% 0.00in /  0mm 23.0 W/m2
18:46 79.2 °F /  26.2 °C 15.4 °F /  -9.2 °C 30.22in /  1023.2hPa West 4.9mph /  7.9km/h 8.0mph /  12.9km/h 9% 0.00in /  0mm 21.0 W/m2
18:51 78.4 °F /  25.8 °C 14.9 °F /  -9.5 °C 30.22in /  1023.2hPa SW 4.0mph /  6.4km/h 5.0mph /  8km/h 9% 0.00in /  0mm 16.0 W/m2
18:57 78.1 °F /  25.6 °C 14.7 °F /  -9.6 °C 30.22in /  1023.2hPa WSW 0.9mph /  1.4km/h 5.0mph /  8km/h 9% 0.00in /  0mm 12.0 W/m2
19:03 77.5 °F /  25.3 °C 16.7 °F /  -8.5 °C 30.22in /  1023.2hPa Calm   5.0mph /  8km/h 10% 0.00in /  0mm 9.0 W/m2
19:08 77.4 °F /  25.2 °C 14.2 °F /  -9.9 °C 30.22in /  1023.2hPa West 6.0mph /  9.7km/h 6.0mph /  9.7km/h 9% 0.00in /  0mm 7.0 W/m2
19:14 76.8 °F /  24.9 °C 16.2 °F /  -8.8 °C 30.23in /  1023.6hPa WSW 0.9mph /  1.4km/h 4.0mph /  6.4km/h 10% 0.00in /  0mm 0.0 W/m2
19:19 76.5 °F /  24.7 °C 15.8 °F /  -9 °C 30.23in /  1023.6hPa WSW 0.9mph /  1.4km/h 2.0mph /  3.2km/h 10% 0.00in /  0mm 0.0 W/m2
19:30 75.7 °F /  24.3 °C 15.3 °F /  -9.3 °C 30.23in /  1023.6hPa Calm   4.0mph /  6.4km/h 10% 0.00in /  0mm 0.0 W/m2
19:35 75.4 °F /  24.1 °C 15.1 °F /  -9.4 °C 30.23in /  1023.6hPa Calm   1.0mph /  1.6km/h 10% 0.00in /  0mm 0.0 W/m2
19:40 75.0 °F /  23.9 °C 14.7 °F /  -9.6 °C 30.23in /  1023.6hPa WSW 2.0mph /  3.2km/h 3.0mph /  4.8km/h 10% 0.00in /  0mm 0.0 W/m2
19:46 74.7 °F /  23.7 °C 16.7 °F /  -8.5 °C 30.24in /  1023.9hPa SW 2.0mph /  3.2km/h 3.0mph /  4.8km/h 11% 0.00in /  0mm 0.0 W/m2
19:51 74.5 °F /  23.6 °C 16.5 °F /  -8.6 °C 30.24in /  1023.9hPa Calm   2.0mph /  3.2km/h 11% 0.00in /  0mm 0.0 W/m2
19:52 74.5 °F /  23.6 °C 16.5 °F /  -8.6 °C 30.24in /  1023.9hPa Calm   2.0mph /  3.2km/h 11% 0.00in /  0mm 0.0 W/m2
19:57 74.1 °F /  23.4 °C 16.2 °F /  -8.8 °C 30.24in /  1023.9hPa SW 0.9mph /  1.4km/h 2.0mph /  3.2km/h 11% 0.00in /  0mm 0.0 W/m2
20:03 73.8 °F /  23.2 °C 16.0 °F /  -8.9 °C 30.24in /  1023.9hPa Calm   4.0mph /  6.4km/h 11% 0.00in /  0mm 0.0 W/m2
20:08 73.6 °F /  23.1 °C 17.8 °F /  -7.9 °C 30.25in /  1024.3hPa Calm   3.0mph /  4.8km/h 12% 0.00in /  0mm 0.0 W/m2
20:13 73.2 °F /  22.9 °C 17.6 °F /  -8 °C 30.25in /  1024.3hPa Calm   3.0mph /  4.8km/h 12% 0.00in /  0mm 0.0 W/m2
20:19 73.0 °F /  22.8 °C 17.4 °F /  -8.1 °C 30.25in /  1024.3hPa Calm   1.0mph /  1.6km/h 12% 0.00in /  0mm 0.0 W/m2
20:24 72.7 °F /  22.6 °C 17.1 °F /  -8.3 °C 30.25in /  1024.3hPa Calm   2.0mph /  3.2km/h 12% 0.00in /  0mm 0.0 W/m2
20:29 72.5 °F /  22.5 °C 17.1 °F /  -8.3 °C 30.25in /  1024.3hPa Calm   4.0mph /  6.4km/h 12% 0.00in /  0mm 0.0 W/m2
20:35 72.1 °F /  22.3 °C 16.7 °F /  -8.5 °C 30.26in /  1024.6hPa Calm   3.0mph /  4.8km/h 12% 0.00in /  0mm 0.0 W/m2
20:40 72.0 °F /  22.2 °C 16.5 °F /  -8.6 °C 30.26in /  1024.6hPa SSW 0.9mph /  1.4km/h 4.0mph /  6.4km/h 12% 0.00in /  0mm 0.0 W/m2
20:45 71.8 °F /  22.1 °C 16.5 °F /  -8.6 °C 30.26in /  1024.6hPa Calm   2.0mph /  3.2km/h 12% 0.00in /  0mm 0.0 W/m2
20:50 71.6 °F /  22 °C 16.3 °F /  -8.7 °C 30.26in /  1024.6hPa Calm   2.0mph /  3.2km/h 12% 0.00in /  0mm 0.0 W/m2
20:56 71.4 °F /  21.9 °C 16.2 °F /  -8.8 °C 30.26in /  1024.6hPa Calm   1.0mph /  1.6km/h 12% 0.00in /  0mm 0.0 W/m2
21:01 71.1 °F /  21.7 °C 15.8 °F /  -9 °C 30.27in /  1024.9hPa Calm     12% 0.00in /  0mm 0.0 W/m2
21:06 70.9 °F /  21.6 °C 15.8 °F /  -9 °C 30.27in /  1024.9hPa Calm     12% 0.00in /  0mm 0.0 W/m2
21:12 70.5 °F /  21.4 °C 17.2 °F /  -8.2 °C 30.27in /  1024.9hPa Calm     13% 0.00in /  0mm 0.0 W/m2
21:17 70.0 °F /  21.1 °C 16.9 °F /  -8.4 °C 30.27in /  1024.9hPa Calm     13% 0.00in /  0mm 0.0 W/m2
21:23 69.4 °F /  20.8 °C 18.1 °F /  -7.7 °C 30.28in /  1025.3hPa Calm     14% 0.00in /  0mm 0.0 W/m2
21:29 69.1 °F /  20.6 °C 18.0 °F /  -7.8 °C 30.28in /  1025.3hPa Calm     14% 0.00in /  0mm 0.0 W/m2
21:34 68.5 °F /  20.3 °C 19.0 °F /  -7.2 °C 30.28in /  1025.3hPa Calm     15% 0.00in /  0mm 0.0 W/m2
21:39 68.2 °F /  20.1 °C 18.7 °F /  -7.4 °C 30.28in /  1025.3hPa Calm   1.0mph /  1.6km/h 15% 0.00in /  0mm 0.0 W/m2
21:45 67.6 °F /  19.8 °C 18.3 °F /  -7.6 °C 30.28in /  1025.3hPa Calm     15% 0.00in /  0mm 0.0 W/m2
21:50 66.9 °F /  19.4 °C 19.2 °F /  -7.1 °C 30.28in /  1025.3hPa SW 1.0mph /  1.6km/h 1.0mph /  1.6km/h 16% 0.00in /  0mm 0.0 W/m2
21:55 66.6 °F /  19.2 °C 19.0 °F /  -7.2 °C 30.28in /  1025.3hPa Calm     16% 0.00in /  0mm 0.0 W/m2
22:01 66.0 °F /  18.9 °C 17.1 °F /  -8.3 °C 30.28in /  1025.3hPa Calm   1.0mph /  1.6km/h 15% 0.00in /  0mm 0.0 W/m2
22:06 65.5 °F /  18.6 °C 18.1 °F /  -7.7 °C 30.28in /  1025.3hPa Calm   2.0mph /  3.2km/h 16% 0.00in /  0mm 0.0 W/m2
22:12 65.1 °F /  18.4 °C 17.8 °F /  -7.9 °C 30.28in /  1025.3hPa Calm     16% 0.00in /  0mm 0.0 W/m2
22:17 64.8 °F /  18.2 °C 17.4 °F /  -8.1 °C 30.29in /  1025.6hPa Calm     16% 0.00in /  0mm 0.0 W/m2
22:22 64.4 °F /  18 °C 18.7 °F /  -7.4 °C 30.29in /  1025.6hPa Calm     17% 0.00in /  0mm 0.0 W/m2
22:27 64.0 °F /  17.8 °C 19.6 °F /  -6.9 °C 30.29in /  1025.6hPa Calm     18% 0.00in /  0mm 0.0 W/m2
22:33 63.7 °F /  17.6 °C 19.4 °F /  -7 °C 30.29in /  1025.6hPa Calm     18% 0.00in /  0mm 0.0 W/m2
22:38 63.3 °F /  17.4 °C 20.3 °F /  -6.5 °C 30.29in /  1025.6hPa Calm     19% 0.00in /  0mm 0.0 W/m2
22:43 63.0 °F /  17.2 °C 20.1 °F /  -6.6 °C 30.29in /  1025.6hPa Calm     19% 0.00in /  0mm 0.0 W/m2
22:49 62.4 °F /  16.9 °C 20.8 °F /  -6.2 °C 30.29in /  1025.6hPa Calm     20% 0.00in /  0mm 0.0 W/m2
22:54 62.2 °F /  16.8 °C 20.7 °F /  -6.3 °C 30.30in /  1026hPa Calm   1.0mph /  1.6km/h 20% 0.00in /  0mm 0.0 W/m2
22:59 61.9 °F /  16.6 °C 20.3 °F /  -6.5 °C 30.30in /  1026hPa Calm   1.0mph /  1.6km/h 20% 0.00in /  0mm 0.0 W/m2
23:04 61.5 °F /  16.4 °C 18.9 °F /  -7.3 °C 30.30in /  1026hPa SSE 2.0mph /  3.2km/h 4.0mph /  6.4km/h 19% 0.00in /  0mm 0.0 W/m2
23:09 61.5 °F /  16.4 °C 18.9 °F /  -7.3 °C 30.30in /  1026hPa Calm   4.0mph /  6.4km/h 19% 0.00in /  0mm 0.0 W/m2
23:14 61.7 °F /  16.5 °C 19.0 °F /  -7.2 °C 30.31in /  1026.3hPa Calm   1.0mph /  1.6km/h 19% 0.00in /  0mm 0.0 W/m2
23:19 61.9 °F /  16.6 °C 19.2 °F /  -7.1 °C 30.31in /  1026.3hPa SE 2.0mph /  3.2km/h 4.0mph /  6.4km/h 19% 0.00in /  0mm 0.0 W/m2
23:24 62.2 °F /  16.8 °C 19.4 °F /  -7 °C 30.31in /  1026.3hPa SSE 0.9mph /  1.4km/h 4.0mph /  6.4km/h 19% 0.00in /  0mm 0.0 W/m2
23:29 62.6 °F /  17 °C 19.8 °F /  -6.8 °C 30.30in /  1026hPa Calm   5.0mph /  8km/h 19% 0.00in /  0mm 0.0 W/m2
23:35 63.0 °F /  17.2 °C 20.1 °F /  -6.6 °C 30.31in /  1026.3hPa Calm   6.0mph /  9.7km/h 19% 0.00in /  0mm 0.0 W/m2
23:40 63.3 °F /  17.4 °C 20.3 °F /  -6.5 °C 30.30in /  1026hPa Calm   1.0mph /  1.6km/h 19% 0.00in /  0mm 0.0 W/m2
23:45 63.5 °F /  17.5 °C 20.5 °F /  -6.4 °C 30.30in /  1026hPa Calm   1.0mph /  1.6km/h 19% 0.00in /  0mm 0.0 W/m2
23:50 63.7 °F /  17.6 °C 20.7 °F /  -6.3 °C 30.30in /  1026hPa SSW 2.0mph /  3.2km/h 3.0mph /  4.8km/h 19% 0.00in /  0mm 0.0 W/m2
23:55 63.7 °F /  17.6 °C 20.7 °F /  -6.3 °C 30.29in /  1025.6hPa SE 0.9mph /  1.4km/h 2.0mph /  3.2km/h 19% 0.00in /  0mm 0.0 W/m2
Olympia, Windhoek, Namibia
Compliments of Weather Underground - 3.25 mb